Terminal Aerodrome Forecast
Issued by NWS Mt. Holly, NJ

Home | Current Version | Previous Version | Text Only | Print | Product List | Glossary On
Versions: 1 2 3 4 5 6 7 8 9 10 11 12 13 14 15 16 17 18 19 20 21 22 23 24 25 26 27 28 29 30 31 32 33 34 35 36
240
FTAK31 PANC 300821 AAA
TAFABE
TAF AMD
PABE 300821Z 3008/3106 17006KT P6SM VCFG FEW002 WS010/04020KT
      TEMPO 3010/3013 1SM BR BKN002
     FM301300 09005KT 1/2SM FG BKN002
     FM301700 04013KT P6SM SCT200
     FM302300 16017G24KT P6SM VCSH SCT080 BKN150
     FM310530 13009KT P6SM VCSH SCT040 BKN070=

USA.gov is the U.S. government's official web portal to all federal, state and local government web resources and services.